Latest Weather Observations for Kuitpo

IDS60901

Issued at 4:25 pm CST Thursday 28 August 2014 (issued every 10 minutes, with the page automatically refreshed every 10 minutes)

About weather observations | Map of Adelaide area stations | Latest observations for Adelaide area | Other Formats
Station Details ID: 023887 Name: KUITPO FOREST RESERVE Lat: -35.17 Lon: 138.68 Height: 365.0 m
Data from the previous 72 hours. | See also: Recent months at Kuitpo
Date/Time
CST
Tmp

°C
App
Tmp
°C
Dew
Point
°C
Rel
Hum
%
Delta-T

°C
Wind Press
QNH
hPa
Press
MSL
hPa
Rain
since
9 am
mm
Dir
 
Spd
km/h
Gust
km/h
Spd
kts
Gust
kts
28/04:00pm 19.0 16.8 9.2 53 5.2 W 11 17 6 9 1026.4 1026.7 0.0
28/03:30pm 19.3 16.5 8.6 50 5.6 W 13 19 7 10 1026.3 1026.6 0.0
28/03:00pm 20.0 17.8 9.3 50 5.7 W 11 17 6 9 1026.3 1026.6 0.0
28/02:30pm 19.9 17.7 9.2 50 5.7 W 11 17 6 9 1026.3 1026.6 0.0
28/02:00pm 20.1 18.4 9.7 51 5.7 W 9 17 5 9 1026.3 1026.6 0.0
28/01:30pm 20.5 18.5 8.5 46 6.4 WNW 9 15 5 8 1026.5 1026.8 0.0
28/01:00pm 19.6 17.3 7.4 45 6.3 W 9 15 5 8 1026.9 1027.2 0.0
28/12:30pm 19.2 17.3 7.6 47 6.0 WSW 7 11 4 6 1027.3 1027.6 0.0
28/12:00pm 18.8 16.5 7.3 47 5.9 W 9 15 5 8 1027.8 1028.0 0.0
28/11:30am 18.8 17.0 7.9 49 5.6 W 7 13 4 7 1028.1 1028.3 0.0
28/11:00am 18.9 17.2 9.9 56 4.9 WNW 9 15 5 8 1028.1 1028.3 0.0
28/10:30am 18.4 17.3 10.0 58 4.5 NNW 6 9 3 5 1028.0 1028.2 0.0
28/10:00am 18.3 16.9 9.6 57 4.7 NNE 7 9 4 5 1028.0 1028.2 0.0
28/09:30am 17.1 15.6 9.0 59 4.2 NNE 7 11 4 6 1028.1 1028.3 0.0
28/09:00am 15.8 14.1 8.3 61 3.8 NE 7 9 4 5 1028.1 1028.3 0.0
28/08:30am 14.5 12.9 8.0 65 3.3 N 6 7 3 4 1028.1 1028.3 0.0
28/08:00am 13.1 11.4 7.5 69 2.8 NNE 6 9 3 5 1027.9 1028.1 0.0
28/07:30am 11.7 9.3 6.8 72 2.4 NNE 9 11 5 6 1027.5 1027.8 0.0
28/07:00am 10.8 7.9 6.7 76 2.0 NNE 11 15 6 8 1027.3 1027.6 0.0
28/06:30am 10.6 7.7 6.6 76 1.9 NNE 11 15 6 8 1026.9 1027.2 0.0
28/06:00am 10.5 7.6 6.6 77 1.9 NNE 11 15 6 8 1026.6 1026.9 0.0
28/05:30am 10.5 7.6 6.6 77 1.9 NE 11 15 6 8 1026.5 1026.8 0.0
28/05:00am 10.3 7.1 6.8 79 1.7 NE 13 17 7 9 1026.6 1026.9 0.0
28/04:30am 10.5 7.3 6.8 78 1.8 NE 13 19 7 10 1026.5 1026.8 0.0
28/04:00am 11.2 7.3 6.9 75 2.1 ENE 17 20 9 11 1026.4 1026.7 0.0
28/03:30am 11.0 7.4 6.6 74 2.1 ENE 15 20 8 11 1026.4 1026.7 0.0
28/03:00am 11.2 7.2 6.5 73 2.2 ENE 17 20 9 11 1026.3 1026.6 0.0
28/02:30am 11.6 7.6 6.7 72 2.4 ENE 17 20 9 11 1026.6 1026.9 0.0
28/02:00am 11.5 7.7 6.0 69 2.6 ENE 15 17 8 9 1026.9 1027.2 0.0
28/01:30am 11.8 7.7 6.1 68 2.7 ENE 17 19 9 10 1027.0 1027.3 0.0
28/01:00am 11.8 8.0 5.9 67 2.8 E 15 17 8 9 1027.2 1027.5 0.0
28/12:30am 12.1 8.3 5.7 65 3.0 E 15 17 8 9 1027.2 1027.5 0.0
28/12:00am 12.0 8.3 6.3 68 2.7 E 15 17 8 9 1027.2 1027.5 0.0
 
Date/Time
CST
Tmp

°C
App
Tmp
°C
Dew
Point
°C
Rel
Hum
%
Delta-T

°C
Wind Press
QNH
hPa
Press
MSL
hPa
Rain
since
9 am
mm
Dir
 
Spd
km/h
Gust
km/h
Spd
kts
Gust
kts
27/11:30pm 12.1 8.4 6.4 68 2.7 E 15 17 8 9 1027.4 1027.7 0.0
27/11:00pm 12.6 9.0 6.6 67 2.9 E 15 17 8 9 1027.4 1027.7 0.0
27/10:30pm 12.9 9.4 7.1 68 2.8 E 15 19 8 10 1027.3 1027.6 0.0
27/10:00pm 12.9 9.7 6.7 66 3.0 E 13 15 7 8 1027.3 1027.6 0.0
27/09:30pm 13.1 9.5 6.9 66 3.0 E 15 17 8 9 1027.2 1027.5 0.0
27/09:00pm 13.3 9.4 7.1 66 3.0 E 17 19 9 10 1027.0 1027.3 0.0
27/08:30pm 13.7 10.3 7.5 66 3.1 E 15 19 8 10 1026.8 1027.1 0.0
27/08:00pm 13.2 9.6 8.3 72 2.5 E 17 20 9 11 1026.7 1027.0 0.0
27/07:30pm 13.2 10.1 8.7 74 2.3 ESE 15 17 8 9 1026.5 1026.8 0.0
27/07:00pm 13.3 10.8 8.0 70 2.7 SE 11 15 6 8 1026.2 1026.5 0.0
27/06:30pm 13.8 11.6 6.4 61 3.6 S 7 9 4 5 1026.1 1026.4 0.0
27/06:00pm 14.0 11.9 6.8 62 3.5 SW 7 9 4 5 1025.8 1026.0 0.0
27/05:30pm 15.3 13.1 7.8 61 3.8 WSW 9 11 5 6 1025.6 1025.8 0.0
27/05:00pm 16.8 15.1 7.7 55 4.7 W 6 7 3 4 1025.3 1025.5 0.0
27/04:30pm 17.1 15.3 8.0 55 4.7 W 7 11 4 6 1025.0 1025.2 0.0
27/04:00pm 17.2 15.1 8.1 55 4.7 W 9 15 5 8 1025.0 1025.2 0.0
27/03:30pm 17.2 14.6 7.8 54 4.8 WSW 11 17 6 9 1025.0 1025.2 0.0
27/03:00pm 17.8 15.0 8.6 55 4.8 WSW 13 20 7 11 1024.9 1025.1 0.0
27/02:30pm 18.1 15.9 9.5 57 4.6 SW 11 15 6 8 1024.9 1025.1 0.0
27/02:00pm 18.3 17.4 9.1 55 4.9 NE 4 9 2 5 1024.9 1025.1 0.0
27/01:30pm 18.4 17.1 9.2 55 4.9 N 6 11 3 6 1025.1 1025.3 0.0
27/01:00pm 17.8 16.2 8.9 56 4.7 SW 7 13 4 7 1025.4 1025.6 0.0
27/12:30pm 17.5 15.5 7.3 51 5.2 NNE 7 11 4 6 1025.9 1026.2 0.0
27/12:00pm 16.6 14.0 7.8 56 4.5 W 11 17 6 9 1026.2 1026.5 0.0
27/11:30am 16.7 14.6 8.1 57 4.4 W 9 15 5 8 1026.6 1026.9 0.0
27/11:00am 16.7 14.8 7.6 55 4.7 W 7 13 4 7 1026.8 1027.1 0.0
27/10:30am 16.9 15.3 8.1 56 4.5 N 6 9 3 5 1026.9 1027.2 0.0
27/10:00am 15.9 13.7 7.7 58 4.2 NNE 9 15 5 8 1026.7 1027.0 0.0
27/09:30am 14.4 11.0 7.7 64 3.4 NE 15 20 8 11 1026.4 1026.7 0.0
27/09:00am 13.1 9.5 6.9 66 3.0 NE 15 20 8 11 1026.3 1026.6 0.0
27/08:30am 11.8 8.6 6.7 71 2.5 NE 13 19 7 10 1026.0 1026.3 0.0
27/08:00am 10.4 6.7 6.5 77 1.9 NE 15 22 8 12 1025.7 1025.9 0.0
27/07:30am 8.6 4.8 5.9 83 1.2 NE 15 24 8 13 1025.5 1025.7 0.0
27/07:00am 7.6 2.4 5.6 87 0.9 ENE 22 28 12 15 1024.7 1025.0 0.0
27/06:30am 7.9 3.4 6.0 88 0.9 NE 19 24 10 13 1024.6 1024.9 0.0
27/06:00am 8.5 5.2 6.6 88 0.9 ENE 13 15 7 8 1024.7 1025.0 0.0
27/05:30am 9.1 6.6 6.5 84 1.2 NE 9 13 5 7 1024.7 1025.0 0.0
27/05:00am 9.7 7.3 6.8 82 1.4 NE 9 11 5 6 1024.7 1025.0 0.0
27/04:30am 9.7 6.4 6.6 81 1.5 ENE 13 15 7 8 1024.3 1024.6 0.0
27/04:00am 9.9 6.2 6.4 79 1.7 ENE 15 17 8 9 1024.1 1024.4 0.0
27/03:30am 10.0 5.9 6.3 78 1.7 ENE 17 19 9 10 1024.2 1024.5 0.0
27/03:00am 9.2 5.5 6.1 81 1.4 ENE 15 17 8 9 1024.3 1024.6 0.0
27/02:30am 9.2 5.1 6.3 82 1.4 ENE 17 20 9 11 1024.1 1024.4 0.0
27/02:00am 9.1 5.6 7.1 87 1.0 ENE 15 20 8 11 1024.1 1024.4 0.0
27/01:30am 9.3 5.4 6.9 85 1.1 ENE 17 20 9 11 1024.1 1024.4 0.0
27/01:00am 9.5 5.7 7.4 87 1.0 E 17 19 9 10 1024.3 1024.6 0.0
27/12:30am 9.5 6.1 7.6 88 0.9 E 15 20 8 11 1024.2 1024.5 0.0
27/12:00am 9.9 6.1 7.7 86 1.1 E 17 19 9 10 1024.4 1024.7 0.0
 
Date/Time
CST
Tmp

°C
App
Tmp
°C
Dew
Point
°C
Rel
Hum
%
Delta-T

°C
Wind Press
QNH
hPa
Press
MSL
hPa
Rain
since
9 am
mm
Dir
 
Spd
km/h
Gust
km/h
Spd
kts
Gust
kts
26/11:30pm 9.9 6.4 7.3 84 1.3 E 15 19 8 10 1024.4 1024.7 0.0
26/11:00pm 10.1 7.0 7.2 82 1.4 E 13 17 7 9 1024.4 1024.7 0.0
26/10:30pm 10.7 7.6 7.2 79 1.7 ENE 13 17 7 9 1024.5 1024.8 0.0
26/10:00pm 10.8 7.3 7.3 79 1.7 E 15 17 8 9 1024.7 1025.0 0.0
26/09:30pm 11.2 7.5 6.3 72 2.3 ENE 15 17 8 9 1024.6 1024.9 0.0
26/09:00pm 11.1 7.8 6.5 73 2.2 ENE 13 17 7 9 1024.7 1025.0 0.0
26/08:30pm 11.3 8.4 6.6 73 2.3 ENE 11 13 6 7 1024.5 1024.8 0.0
26/08:00pm 11.5 8.3 6.8 73 2.3 ENE 13 17 7 9 1024.2 1024.5 0.0
26/07:30pm 11.6 8.5 7.3 75 2.1 ENE 13 17 7 9 1024.1 1024.4 0.0
26/07:00pm 11.4 8.7 9.1 86 1.2 E 13 15 7 8 1023.9 1024.2 0.0
26/06:30pm 11.6 11.5 9.5 87 1.1 CALM 0 0 0 0 1023.7 1024.0 0.0
26/06:00pm 11.8 11.6 9.0 83 1.4 CALM 0 0 0 0 1023.6 1023.9 0.0
26/05:30pm 13.1 11.7 9.7 80 1.8 W 7 9 4 5 1023.3 1023.5 0.0
26/05:00pm 13.9 12.9 10.3 79 1.9 W 6 9 3 5 1023.2 1023.4 0.0
26/04:30pm 13.9 12.2 9.7 76 2.2 W 9 15 5 8 1023.1 1023.3 0.0
26/04:00pm 14.7 12.7 10.3 75 2.3 WSW 11 17 6 9 1023.1 1023.3 0.0
26/03:30pm 14.5 12.1 9.9 74 2.4 W 13 19 7 10 1023.1 1023.3 0.0
26/03:00pm 15.0 12.7 10.6 75 2.4 W 13 19 7 10 1023.2 1023.4 0.0
26/02:30pm 15.2 12.6 10.6 74 2.5 W 15 20 8 11 1023.2 1023.4 0.0
26/02:00pm 16.1 14.6 10.6 70 3.0 W 9 13 5 7 1023.4 1023.6 0.0
26/01:30pm 16.4 14.6 7.9 57 4.3 NNE 7 13 4 7 1023.7 1024.0 0.0
26/01:00pm 15.7 13.8 7.7 59 4.1 NE 7 13 4 7 1024.0 1024.3 0.0
26/12:30pm 15.1 12.6 8.1 63 3.6 ENE 11 17 6 9 1024.3 1024.6 0.0
26/12:00pm 14.6 12.1 8.1 65 3.3 E 11 15 6 8 1024.7 1025.0 0.0
26/11:30am 14.2 11.7 8.4 68 3.0 E 11 19 6 10 1025.3 1025.5 0.0
26/11:00am 14.0 11.4 9.2 73 2.5 NE 13 19 7 10 1025.7 1025.9 0.0
26/10:30am 12.9 10.5 8.6 75 2.2 ENE 11 17 6 9 1025.9 1026.2 0.0
26/10:00am 11.9 9.3 9.3 84 1.3 NE 13 20 7 11 1026.2 1026.5 0.0
26/09:30am 10.6 8.7 10.6 100 0.0 NE 11 17 6 9 1026.4 1026.7 0.0
26/09:00am 8.6 5.4 8.6 100 0.0 ENE 15 20 8 11 1026.5 1026.8 0.2
26/08:30am 7.3 3.4 7.3 100 0.0 ENE 17 20 9 11 1026.5 1026.8 0.2
26/08:00am 6.8 3.6 6.8 100 0.0 NE 13 19 7 10 1026.4 1026.7 0.0
26/07:30am 6.4 3.5 6.4 100 0.0 NE 11 17 6 9 1026.1 1026.4 0.0
26/07:00am 6.4 3.1 6.4 100 0.0 ENE 13 19 7 10 1025.8 1026.0 0.0
26/06:30am 6.5 2.5 6.5 100 0.0 ENE 17 24 9 13 1025.4 1025.6 0.0
26/06:00am 6.6 2.2 6.6 100 0.0 ENE 19 26 10 14 1025.3 1025.5 0.0
26/05:30am 6.8 2.8 6.8 100 0.0 ENE 17 24 9 13 1024.9 1025.1 0.0
26/05:00am 7.0 3.5 7.0 100 0.0 ENE 15 22 8 12 1025.0 1025.2 0.0
26/04:30am 7.1 3.6 7.1 100 0.0 ENE 15 20 8 11 1025.1 1025.3 0.0
26/04:00am 7.3 3.4 7.3 100 0.0 ENE 17 20 9 11 1025.1 1025.3 0.0
26/03:30am 7.7 4.3 7.7 100 0.0 ENE 15 20 8 11 1025.4 1025.6 0.0
26/03:00am 7.9 4.2 7.9 100 0.0 E 17 20 9 11 1025.6 1025.8 0.0
26/02:30am 8.1 3.9 8.1 100 0.0 E 20 24 11 13 1025.9 1026.2 0.0
26/02:00am 8.3 4.7 8.3 100 0.0 E 17 26 9 14 1026.0 1026.3 0.0
26/01:30am 8.5 4.9 8.5 100 0.0 E 17 24 9 13 1026.3 1026.6 0.0
26/01:00am 8.3 4.3 8.3 100 0.0 E 19 26 10 14 1026.4 1026.7 0.0
26/12:30am 7.6 3.4 7.6 100 0.0 E 19 24 10 13 1026.4 1026.7 0.0
26/12:00am 7.5 3.3 7.5 100 0.0 E 19 24 10 13 1026.7 1027.0 0.0
 
Date/Time
CST
Tmp

°C
App
Tmp
°C
Dew
Point
°C
Rel
Hum
%
Delta-T

°C
Wind Press
QNH
hPa
Press
MSL
hPa
Rain
since
9 am
mm
Dir
 
Spd
km/h
Gust
km/h
Spd
kts
Gust
kts
25/11:30pm 7.0 2.7 7.0 100 0.0 E 19 24 10 13 1026.9 1027.2 0.0
25/11:00pm 6.9 2.6 6.9 100 0.0 E 19 20 10 11 1027.0 1027.3 0.0
25/10:30pm 6.7 2.7 6.7 100 0.0 E 17 19 9 10 1027.4 1027.7 0.0
25/10:00pm 6.9 3.3 6.9 100 0.0 E 15 19 8 10 1027.5 1027.8 0.0
25/09:30pm 7.2 2.9 6.9 98 0.1 ESE 19 26 10 14 1027.5 1027.8 0.0
25/09:00pm 7.3 3.4 6.9 97 0.2 ESE 17 24 9 13 1027.8 1028.0 0.0
25/08:30pm 7.3 3.4 7.0 98 0.1 SE 17 24 9 13 1028.0 1028.2 0.0
25/08:00pm 7.2 2.9 6.9 98 0.1 SE 19 26 10 14 1027.8 1028.0 0.0
25/07:30pm 7.4 2.9 7.0 97 0.2 SE 20 26 11 14 1027.5 1027.8 0.0
25/07:00pm 7.6 3.7 6.9 95 0.3 SE 17 24 9 13 1027.5 1027.8 0.0
25/06:30pm 8.2 4.3 7.0 92 0.6 SE 17 24 9 13 1027.3 1027.6 0.0
25/06:00pm 8.8 4.9 7.3 90 0.7 SE 17 24 9 13 1026.9 1027.2 0.0
25/05:30pm 10.1 6.3 7.7 85 1.2 SE 17 22 9 12 1026.7 1027.0 0.0
25/05:00pm 11.5 8.2 8.2 80 1.7 ESE 15 20 8 11 1026.5 1026.8 0.0
25/04:30pm 12.9 10.4 8.2 73 2.4 ESE 11 17 6 9 1026.6 1026.9 0.0

Latest Capital City Observations: Canberra | Sydney | Melbourne | Brisbane | Adelaide | Perth | Hobart | Darwin

Other Formats:

Comma delimited format used in spreadsheet applications
http://www.bom.gov.au/fwo/IDS60901/IDS60901.94683.axf

JavaScript Object Notation format (JSON) in row-major order
http://www.bom.gov.au/fwo/IDS60901/IDS60901.94683.json